Ashiya Air Base, Japan

8:48 AM JST on February 13, 2016 (GMT +0900)
Akama Station(JR KYUSHU RAILWAY) | | Change Station
CLOSE
Current Station
Personal Weather Station
Location: Munakata, FUKUOKA
Elevation: 33 ft
Nearby Weather Stations

Elev 33 ft 33.80 °N, 130.57 °E | Updated 0 second ago

Rain Showers
Showers Rain
57.3 °F
Feels Like 57.3 °F
N
2.3
Wind Variable Wind from ESE
Gusts 2.3 mph

Today
High -- | Low -- °F
--% Chance of Precip.
Yesterday
High -- | Low -- °F
Precip. -- in
Pressure 29.95 in
Visibility 3.7 miles
Clouds Few 1000 ft
Mostly Cloudy 3000 ft
Mostly Cloudy 4000 ft
Dew Point 56 °F
Humidity 95%
Rainfall 0.29 in
Snow Depth Not available.
7:04 AM 5:58 PM
Waxing Crescent, 24% visible
SPECI RJFF 122338Z 14011KT 6000 SHRA FEW010 BKN030 BKN040 16/13 Q1014 RMK 1ST010 5CU030 6CU040 A2997
Pressure 29.95 in
Visibility 3.7 miles
Clouds Few 1000 ft
Mostly Cloudy 3000 ft
Mostly Cloudy 4000 ft
Dew Point 56 °F
Humidity 95%
Rainfall 0.29 in
Snow Depth Not available.
7:04 AM 5:58 PM
Waxing Crescent, 24% visible
SPECI RJFF 122338Z 14011KT 6000 SHRA FEW010 BKN030 BKN040 16/13 Q1014 RMK 1ST010 5CU030 6CU040 A2997

10-Day Weather Forecast

No radar image for this location.
×

Almanac

Astronomy

Feb. 13, 2016 Rise Set
Actual Time
Civil Twilight
Nautical Twilight
Astronomical Twilight
Moon
Length of Visible Light
Length of Day
Tomorrow will be .
, % of the Moon is Illuminated

Today's Extremes

Country Highs Country Lows

Community

WunderPhotos

Upload Photos

1,892,437 photos uploaded!

WunderBlog® & News

Nearby

Air Quality

  Air Quality AQ Index Pollutant
Not available.

Snow Depth

Station Depth Elevation

Earthquake Activity

City Distance Mag. Time & Date
Minimum magnitude displayed is 2.5.

Coastal Water Temperatures

Place Temperature

Stations

Nearby Weather Stations

Station Location Temp. Windchill Dew Point Humidity Wind Precip. Elev Updated Type